sensor_id;sensor_type;location;lat;lon;timestamp;temperature;humidity
54409;DHT22;40315;48.620;9.828;2023-10-09T00:01:43;12.80;99.90
54409;DHT22;40315;48.620;9.828;2023-10-09T00:04:12;12.60;99.90
54409;DHT22;40315;48.620;9.828;2023-10-09T00:06:41;12.60;99.90
54409;DHT22;40315;48.620;9.828;2023-10-09T00:09:10;12.30;99.90
54409;DHT22;40315;48.620;9.828;2023-10-09T00:11:44;12.30;99.90
54409;DHT22;40315;48.620;9.828;2023-10-09T00:14:14;12.30;99.90
54409;DHT22;40315;48.620;9.828;2023-10-09T00:16:44;12.30;99.90
54409;DHT22;40315;48.620;9.828;2023-10-09T00:19:15;12.30;99.90
54409;DHT22;40315;48.620;9.828;2023-10-09T00:21:46;12.30;99.90
54409;DHT22;40315;48.620;9.828;2023-10-09T00:24:15;12.20;99.90
54409;DHT22;40315;48.620;9.828;2023-10-09T00:26:49;12.10;99.90
54409;DHT22;40315;48.620;9.828;2023-10-09T00:29:17;12.00;99.90
54409;DHT22;40315;48.620;9.828;2023-10-09T00:31:51;12.10;99.90
54409;DHT22;40315;48.620;9.828;2023-10-09T00:34:22;12.10;99.90
54409;DHT22;40315;48.620;9.828;2023-10-09T00:36:52;12.00;99.90
54409;DHT22;40315;48.620;9.828;2023-10-09T00:39:21;12.00;99.90
54409;DHT22;40315;48.620;9.828;2023-10-09T00:42:06;11.90;99.90
54409;DHT22;40315;48.620;9.828;2023-10-09T00:44:33;11.90;99.90
54409;DHT22;40315;48.620;9.828;2023-10-09T00:47:06;12.10;99.90
54409;DHT22;40315;48.620;9.828;2023-10-09T00:49:47;12.00;99.90
54409;DHT22;40315;48.620;9.828;2023-10-09T00:57:29;11.80;99.90
54409;DHT22;40315;48.620;9.828;2023-10-09T01:00:00;11.70;99.90
54409;DHT22;40315;48.620;9.828;2023-10-09T01:02:38;12.00;99.90
54409;DHT22;40315;48.620;9.828;2023-10-09T01:05:09;12.00;99.90
54409;DHT22;40315;48.620;9.828;2023-10-09T01:07:46;11.80;99.90
54409;DHT22;40315;48.620;9.828;2023-10-09T01:12:45;11.70;99.90
54409;DHT22;40315;48.620;9.828;2023-10-09T01:15:20;11.70;99.90
54409;DHT22;40315;48.620;9.828;2023-10-09T01:18:14;11.60;99.90
54409;DHT22;40315;48.620;9.828;2023-10-09T01:20:42;11.50;99.90
54409;DHT22;40315;48.620;9.828;2023-10-09T01:23:12;11.90;99.90
54409;DHT22;40315;48.620;9.828;2023-10-09T01:25:41;11.70;99.90
54409;DHT22;40315;48.620;9.828;2023-10-09T01:28:17;11.50;99.90
54409;DHT22;40315;48.620;9.828;2023-10-09T01:30:45;11.80;99.90
54409;DHT22;40315;48.620;9.828;2023-10-09T01:33:13;11.90;99.90
54409;DHT22;40315;48.620;9.828;2023-10-09T01:38:18;12.10;99.90
54409;DHT22;40315;48.620;9.828;2023-10-09T01:40:56;12.10;99.90
54409;DHT22;40315;48.620;9.828;2023-10-09T01:43:32;11.80;99.90
54409;DHT22;40315;48.620;9.828;2023-10-09T01:46:01;11.70;99.90
54409;DHT22;40315;48.620;9.828;2023-10-09T01:48:30;11.60;99.90
54409;DHT22;40315;48.620;9.828;2023-10-09T02:05:30;11.70;99.90
54409;DHT22;40315;48.620;9.828;2023-10-09T02:07:59;11.80;99.90
54409;DHT22;40315;48.620;9.828;2023-10-09T02:10:28;12.00;99.90
54409;DHT22;40315;48.620;9.828;2023-10-09T02:12:59;11.90;99.90
54409;DHT22;40315;48.620;9.828;2023-10-09T02:15:32;11.90;99.90
54409;DHT22;40315;48.620;9.828;2023-10-09T02:18:19;11.80;99.90
54409;DHT22;40315;48.620;9.828;2023-10-09T02:21:04;12.00;99.90
54409;DHT22;40315;48.620;9.828;2023-10-09T02:23:41;12.00;99.90
54409;DHT22;40315;48.620;9.828;2023-10-09T02:26:13;12.10;99.90
54409;DHT22;40315;48.620;9.828;2023-10-09T02:28:51;12.00;99.90
54409;DHT22;40315;48.620;9.828;2023-10-09T02:33:53;11.90;99.90
54409;DHT22;40315;48.620;9.828;2023-10-09T02:38:54;11.60;99.90
54409;DHT22;40315;48.620;9.828;2023-10-09T02:41:22;11.50;99.90
54409;DHT22;40315;48.620;9.828;2023-10-09T02:43:54;11.60;99.90
54409;DHT22;40315;48.620;9.828;2023-10-09T02:48:56;11.40;99.90
54409;DHT22;40315;48.620;9.828;2023-10-09T02:51:27;11.30;99.90
54409;DHT22;40315;48.620;9.828;2023-10-09T03:04:19;11.60;99.90
54409;DHT22;40315;48.620;9.828;2023-10-09T03:09:23;11.60;99.90
54409;DHT22;40315;48.620;9.828;2023-10-09T03:11:54;11.60;99.90
54409;DHT22;40315;48.620;9.828;2023-10-09T03:14:30;11.40;99.90
54409;DHT22;40315;48.620;9.828;2023-10-09T03:16:57;11.50;99.90
54409;DHT22;40315;48.620;9.828;2023-10-09T03:19:25;11.30;99.90
54409;DHT22;40315;48.620;9.828;2023-10-09T03:24:23;11.40;99.90
54409;DHT22;40315;48.620;9.828;2023-10-09T03:26:50;11.30;99.90
54409;DHT22;40315;48.620;9.828;2023-10-09T03:29:24;11.30;99.90
54409;DHT22;40315;48.620;9.828;2023-10-09T03:31:53;11.30;99.90
54409;DHT22;40315;48.620;9.828;2023-10-09T03:34:22;11.30;99.90
54409;DHT22;40315;48.620;9.828;2023-10-09T03:36:49;11.30;99.90
54409;DHT22;40315;48.620;9.828;2023-10-09T03:42:00;11.30;99.90
54409;DHT22;40315;48.620;9.828;2023-10-09T03:44:31;11.40;99.90
54409;DHT22;40315;48.620;9.828;2023-10-09T03:46:59;11.40;99.90
54409;DHT22;40315;48.620;9.828;2023-10-09T03:49:29;11.50;99.90
54409;DHT22;40315;48.620;9.828;2023-10-09T03:51:57;11.50;99.90
54409;DHT22;40315;48.620;9.828;2023-10-09T03:56:55;11.60;99.90
54409;DHT22;40315;48.620;9.828;2023-10-09T03:59:24;11.60;99.90
54409;DHT22;40315;48.620;9.828;2023-10-09T04:01:56;11.40;99.90
54409;DHT22;40315;48.620;9.828;2023-10-09T04:04:24;11.40;99.90
54409;DHT22;40315;48.620;9.828;2023-10-09T04:06:53;11.40;99.90
54409;DHT22;40315;48.620;9.828;2023-10-09T04:09:20;11.40;99.90
54409;DHT22;40315;48.620;9.828;2023-10-09T04:12:06;11.50;99.90
54409;DHT22;40315;48.620;9.828;2023-10-09T04:14:47;11.60;99.90
54409;DHT22;40315;48.620;9.828;2023-10-09T04:17:18;11.50;99.90
54409;DHT22;40315;48.620;9.828;2023-10-09T04:19:59;11.50;99.90
54409;DHT22;40315;48.620;9.828;2023-10-09T04:23:12;11.30;99.90
54409;DHT22;40315;48.620;9.828;2023-10-09T04:25:42;11.40;99.90
54409;DHT22;40315;48.620;9.828;2023-10-09T04:30:46;11.40;99.90
54409;DHT22;40315;48.620;9.828;2023-10-09T04:33:19;11.30;99.90
54409;DHT22;40315;48.620;9.828;2023-10-09T04:36:01;11.20;99.90
54409;DHT22;40315;48.620;9.828;2023-10-09T04:38:53;11.10;99.90
54409;DHT22;40315;48.620;9.828;2023-10-09T04:41:41;11.10;99.90
54409;DHT22;40315;48.620;9.828;2023-10-09T04:46:51;11.10;99.90
54409;DHT22;40315;48.620;9.828;2023-10-09T04:49:37;11.10;99.90
54409;DHT22;40315;48.620;9.828;2023-10-09T04:52:18;11.10;99.90
54409;DHT22;40315;48.620;9.828;2023-10-09T04:55:06;11.10;99.90
54409;DHT22;40315;48.620;9.828;2023-10-09T04:57:44;11.10;99.90
54409;DHT22;40315;48.620;9.828;2023-10-09T05:00:15;11.20;99.90
54409;DHT22;40315;48.620;9.828;2023-10-09T05:03:09;11.10;99.90
54409;DHT22;40315;48.620;9.828;2023-10-09T05:05:38;11.10;99.90
54409;DHT22;40315;48.620;9.828;2023-10-09T05:08:25;11.00;99.90
54409;DHT22;40315;48.620;9.828;2023-10-09T05:10:56;11.00;99.90
54409;DHT22;40315;48.620;9.828;2023-10-09T05:13:43;11.00;99.90
54409;DHT22;40315;48.620;9.828;2023-10-09T05:16:12;11.00;99.90
54409;DHT22;40315;48.620;9.828;2023-10-09T05:18:44;11.00;99.90
54409;DHT22;40315;48.620;9.828;2023-10-09T05:21:22;11.00;99.90
54409;DHT22;40315;48.620;9.828;2023-10-09T05:24:11;12.80;99.90
54409;DHT22;40315;48.620;9.828;2023-10-09T05:26:50;11.00;99.90
54409;DHT22;40315;48.620;9.828;2023-10-09T05:29:38;11.00;99.90
54409;DHT22;40315;48.620;9.828;2023-10-09T05:32:16;10.90;99.90
54409;DHT22;40315;48.620;9.828;2023-10-09T05:34:53;10.90;99.90
54409;DHT22;40315;48.620;9.828;2023-10-09T05:37:41;11.00;99.90
54409;DHT22;40315;48.620;9.828;2023-10-09T05:40:13;11.00;99.90
54409;DHT22;40315;48.620;9.828;2023-10-09T05:42:49;11.00;99.90
54409;DHT22;40315;48.620;9.828;2023-10-09T05:45:33;11.00;99.90
54409;DHT22;40315;48.620;9.828;2023-10-09T05:51:04;11.00;99.90
54409;DHT22;40315;48.620;9.828;2023-10-09T05:53:38;11.10;99.90
54409;DHT22;40315;48.620;9.828;2023-10-09T05:56:21;11.10;99.90
54409;DHT22;40315;48.620;9.828;2023-10-09T05:59:07;11.10;99.90
54409;DHT22;40315;48.620;9.828;2023-10-09T06:01:52;11.20;99.90
54409;DHT22;40315;48.620;9.828;2023-10-09T06:04:38;11.10;99.90
54409;DHT22;40315;48.620;9.828;2023-10-09T06:07:20;11.10;99.90
54409;DHT22;40315;48.620;9.828;2023-10-09T06:10:07;11.40;99.90
54409;DHT22;40315;48.620;9.828;2023-10-09T06:12:44;11.10;99.90
54409;DHT22;40315;48.620;9.828;2023-10-09T06:15:21;11.10;99.90
54409;DHT22;40315;48.620;9.828;2023-10-09T06:20:59;11.20;99.90
54409;DHT22;40315;48.620;9.828;2023-10-09T06:23:35;11.30;99.90
54409;DHT22;40315;48.620;9.828;2023-10-09T06:26:34;11.40;99.90
54409;DHT22;40315;48.620;9.828;2023-10-09T06:29:01;11.40;99.90
54409;DHT22;40315;48.620;9.828;2023-10-09T06:31:41;11.50;99.90
54409;DHT22;40315;48.620;9.828;2023-10-09T06:34:43;11.50;99.90
54409;DHT22;40315;48.620;9.828;2023-10-09T06:37:12;11.50;99.90
54409;DHT22;40315;48.620;9.828;2023-10-09T06:39:59;11.50;99.90
54409;DHT22;40315;48.620;9.828;2023-10-09T06:42:49;11.60;99.90
54409;DHT22;40315;48.620;9.828;2023-10-09T06:45:21;11.70;99.90
54409;DHT22;40315;48.620;9.828;2023-10-09T06:47:54;11.80;99.90
54409;DHT22;40315;48.620;9.828;2023-10-09T06:50:21;11.90;99.90
54409;DHT22;40315;48.620;9.828;2023-10-09T06:55:38;12.00;99.90
54409;DHT22;40315;48.620;9.828;2023-10-09T06:58:14;12.10;99.90
54409;DHT22;40315;48.620;9.828;2023-10-09T07:03:26;12.30;99.90
54409;DHT22;40315;48.620;9.828;2023-10-09T07:06:03;12.30;99.90
54409;DHT22;40315;48.620;9.828;2023-10-09T07:08:39;12.30;99.90
54409;DHT22;40315;48.620;9.828;2023-10-09T07:11:23;12.30;99.90
54409;DHT22;40315;48.620;9.828;2023-10-09T07:14:04;12.40;99.90
54409;DHT22;40315;48.620;9.828;2023-10-09T07:16:32;12.50;99.90
54409;DHT22;40315;48.620;9.828;2023-10-09T07:19:04;12.60;99.90
54409;DHT22;40315;48.620;9.828;2023-10-09T07:21:50;12.60;99.90
54409;DHT22;40315;48.620;9.828;2023-10-09T07:30:38;12.80;99.90
54409;DHT22;40315;48.620;9.828;2023-10-09T07:33:07;12.90;99.90
54409;DHT22;40315;48.620;9.828;2023-10-09T07:35:45;13.00;99.90
54409;DHT22;40315;48.620;9.828;2023-10-09T07:38:14;13.00;99.90
54409;DHT22;40315;48.620;9.828;2023-10-09T07:40:47;13.10;99.90
54409;DHT22;40315;48.620;9.828;2023-10-09T07:43:22;13.30;99.90
54409;DHT22;40315;48.620;9.828;2023-10-09T07:45:53;13.40;99.90
54409;DHT22;40315;48.620;9.828;2023-10-09T07:48:37;13.40;99.90
54409;DHT22;40315;48.620;9.828;2023-10-09T07:51:18;13.40;99.90
54409;DHT22;40315;48.620;9.828;2023-10-09T07:53:51;13.60;99.90
54409;DHT22;40315;48.620;9.828;2023-10-09T07:56:24;13.50;99.90
54409;DHT22;40315;48.620;9.828;2023-10-09T07:58:56;13.60;99.90
54409;DHT22;40315;48.620;9.828;2023-10-09T08:01:26;13.70;99.90
54409;DHT22;40315;48.620;9.828;2023-10-09T08:04:01;13.80;99.90
54409;DHT22;40315;48.620;9.828;2023-10-09T08:06:30;13.90;99.90
54409;DHT22;40315;48.620;9.828;2023-10-09T08:09:06;14.00;99.90
54409;DHT22;40315;48.620;9.828;2023-10-09T08:12:06;14.10;99.90
54409;DHT22;40315;48.620;9.828;2023-10-09T08:15:07;14.10;99.90
54409;DHT22;40315;48.620;9.828;2023-10-09T08:17:48;14.10;99.90
54409;DHT22;40315;48.620;9.828;2023-10-09T08:20:17;14.20;99.90
54409;DHT22;40315;48.620;9.828;2023-10-09T08:22:43;14.30;99.90
54409;DHT22;40315;48.620;9.828;2023-10-09T08:25:16;14.30;99.90
54409;DHT22;40315;48.620;9.828;2023-10-09T08:27:57;14.50;99.90
54409;DHT22;40315;48.620;9.828;2023-10-09T08:30:43;14.20;99.90
54409;DHT22;40315;48.620;9.828;2023-10-09T08:33:16;14.70;99.90
54409;DHT22;40315;48.620;9.828;2023-10-09T08:36:00;14.90;99.90
54409;DHT22;40315;48.620;9.828;2023-10-09T08:38:31;15.00;99.90
54409;DHT22;40315;48.620;9.828;2023-10-09T08:41:07;15.10;99.90
54409;DHT22;40315;48.620;9.828;2023-10-09T08:43:48;15.20;99.90
54409;DHT22;40315;48.620;9.828;2023-10-09T08:46:24;15.30;99.90
54409;DHT22;40315;48.620;9.828;2023-10-09T08:48:53;15.40;99.90
54409;DHT22;40315;48.620;9.828;2023-10-09T08:51:21;15.60;99.90
54409;DHT22;40315;48.620;9.828;2023-10-09T08:53:49;15.70;99.90
54409;DHT22;40315;48.620;9.828;2023-10-09T08:56:17;15.90;99.90
54409;DHT22;40315;48.620;9.828;2023-10-09T08:58:50;16.00;99.90
54409;DHT22;40315;48.620;9.828;2023-10-09T09:01:18;16.00;99.90
54409;DHT22;40315;48.620;9.828;2023-10-09T09:03:47;16.10;99.90
54409;DHT22;40315;48.620;9.828;2023-10-09T09:06:17;16.20;99.90
54409;DHT22;40315;48.620;9.828;2023-10-09T09:08:45;16.10;99.90
54409;DHT22;40315;48.620;9.828;2023-10-09T09:11:13;16.30;99.90
54409;DHT22;40315;48.620;9.828;2023-10-09T09:13:46;16.40;99.90
54409;DHT22;40315;48.620;9.828;2023-10-09T09:16:21;16.60;99.90
54409;DHT22;40315;48.620;9.828;2023-10-09T09:18:57;16.60;99.90
54409;DHT22;40315;48.620;9.828;2023-10-09T09:21:29;16.60;99.90
54409;DHT22;40315;48.620;9.828;2023-10-09T09:23:59;16.60;99.90
54409;DHT22;40315;48.620;9.828;2023-10-09T09:26:34;16.60;99.90
54409;DHT22;40315;48.620;9.828;2023-10-09T09:29:11;16.70;99.90
54409;DHT22;40315;48.620;9.828;2023-10-09T09:31:52;16.80;99.90
54409;DHT22;40315;48.620;9.828;2023-10-09T09:34:20;17.00;99.90
54409;DHT22;40315;48.620;9.828;2023-10-09T09:36:53;17.00;99.90
54409;DHT22;40315;48.620;9.828;2023-10-09T09:39:22;16.90;99.90
54409;DHT22;40315;48.620;9.828;2023-10-09T09:41:55;16.80;99.90
54409;DHT22;40315;48.620;9.828;2023-10-09T09:44:23;17.00;99.90
54409;DHT22;40315;48.620;9.828;2023-10-09T09:46:59;17.00;99.90
54409;DHT22;40315;48.620;9.828;2023-10-09T09:49:27;17.20;99.90
54409;DHT22;40315;48.620;9.828;2023-10-09T09:52:00;17.30;99.90
54409;DHT22;40315;48.620;9.828;2023-10-09T09:54:36;17.40;99.90
54409;DHT22;40315;48.620;9.828;2023-10-09T09:57:04;17.50;99.90
54409;DHT22;40315;48.620;9.828;2023-10-09T09:59:38;17.70;99.90
54409;DHT22;40315;48.620;9.828;2023-10-09T10:02:21;17.70;99.90
54409;DHT22;40315;48.620;9.828;2023-10-09T10:04:54;17.80;99.90
54409;DHT22;40315;48.620;9.828;2023-10-09T10:07:23;17.80;99.90
54409;DHT22;40315;48.620;9.828;2023-10-09T10:09:51;17.90;99.90
54409;DHT22;40315;48.620;9.828;2023-10-09T10:12:51;18.00;99.90
54409;DHT22;40315;48.620;9.828;2023-10-09T10:18:57;18.10;99.90
54409;DHT22;40315;48.620;9.828;2023-10-09T10:21:33;18.30;99.90
54409;DHT22;40315;48.620;9.828;2023-10-09T10:27:19;18.40;99.90
54409;DHT22;40315;48.620;9.828;2023-10-09T10:30:28;18.30;99.90
54409;DHT22;40315;48.620;9.828;2023-10-09T10:33:02;18.30;99.90
54409;DHT22;40315;48.620;9.828;2023-10-09T10:35:41;18.40;99.90
54409;DHT22;40315;48.620;9.828;2023-10-09T10:38:25;18.60;99.90
54409;DHT22;40315;48.620;9.828;2023-10-09T10:41:22;18.90;99.90
54409;DHT22;40315;48.620;9.828;2023-10-09T10:43:49;19.10;99.90
54409;DHT22;40315;48.620;9.828;2023-10-09T10:46:25;19.00;99.90
54409;DHT22;40315;48.620;9.828;2023-10-09T10:49:04;19.30;99.90
54409;DHT22;40315;48.620;9.828;2023-10-09T10:51:42;19.10;99.90
54409;DHT22;40315;48.620;9.828;2023-10-09T10:54:21;18.90;99.90
54409;DHT22;40315;48.620;9.828;2023-10-09T10:57:19;19.10;99.90
54409;DHT22;40315;48.620;9.828;2023-10-09T10:59:55;19.30;99.90
54409;DHT22;40315;48.620;9.828;2023-10-09T11:02:42;19.20;99.90
54409;DHT22;40315;48.620;9.828;2023-10-09T11:05:11;19.40;99.90
54409;DHT22;40315;48.620;9.828;2023-10-09T11:07:51;19.30;99.90
54409;DHT22;40315;48.620;9.828;2023-10-09T11:10:23;19.40;99.90
54409;DHT22;40315;48.620;9.828;2023-10-09T11:12:57;19.70;99.90
54409;DHT22;40315;48.620;9.828;2023-10-09T11:15:47;19.70;99.90
54409;DHT22;40315;48.620;9.828;2023-10-09T11:18:23;19.90;99.90
54409;DHT22;40315;48.620;9.828;2023-10-09T11:20:53;20.00;99.90
54409;DHT22;40315;48.620;9.828;2023-10-09T11:23:45;20.10;99.90
54409;DHT22;40315;48.620;9.828;2023-10-09T11:26:26;19.80;99.90
54409;DHT22;40315;48.620;9.828;2023-10-09T11:29:10;19.70;99.90
54409;DHT22;40315;48.620;9.828;2023-10-09T11:31:42;19.90;99.90
54409;DHT22;40315;48.620;9.828;2023-10-09T11:34:28;20.10;99.90
54409;DHT22;40315;48.620;9.828;2023-10-09T11:36:59;20.00;99.90
54409;DHT22;40315;48.620;9.828;2023-10-09T11:39:31;20.10;99.90
54409;DHT22;40315;48.620;9.828;2023-10-09T11:42:01;20.00;99.90
54409;DHT22;40315;48.620;9.828;2023-10-09T11:44:37;20.10;99.90
54409;DHT22;40315;48.620;9.828;2023-10-09T11:47:07;20.00;99.90
54409;DHT22;40315;48.620;9.828;2023-10-09T11:49:59;20.10;99.90
54409;DHT22;40315;48.620;9.828;2023-10-09T11:52:59;20.20;99.90
54409;DHT22;40315;48.620;9.828;2023-10-09T11:55:45;20.40;99.90
54409;DHT22;40315;48.620;9.828;2023-10-09T11:58:15;20.40;99.90
54409;DHT22;40315;48.620;9.828;2023-10-09T12:00:50;20.50;99.90
54409;DHT22;40315;48.620;9.828;2023-10-09T12:03:23;20.50;99.90
54409;DHT22;40315;48.620;9.828;2023-10-09T12:05:58;20.50;99.90
54409;DHT22;40315;48.620;9.828;2023-10-09T12:08:30;21.10;99.90
54409;DHT22;40315;48.620;9.828;2023-10-09T12:10:59;20.70;99.90
54409;DHT22;40315;48.620;9.828;2023-10-09T12:13:28;20.80;99.90
54409;DHT22;40315;48.620;9.828;2023-10-09T12:15:57;20.90;99.90
54409;DHT22;40315;48.620;9.828;2023-10-09T12:18:24;20.90;99.90
54409;DHT22;40315;48.620;9.828;2023-10-09T12:20:51;20.90;99.90
54409;DHT22;40315;48.620;9.828;2023-10-09T12:23:21;20.90;99.90
54409;DHT22;40315;48.620;9.828;2023-10-09T12:25:49;20.90;99.90
54409;DHT22;40315;48.620;9.828;2023-10-09T12:28:18;20.70;99.90
54409;DHT22;40315;48.620;9.828;2023-10-09T12:30:47;20.60;99.90
54409;DHT22;40315;48.620;9.828;2023-10-09T12:33:17;20.50;99.90
54409;DHT22;40315;48.620;9.828;2023-10-09T12:35:45;20.30;99.90
54409;DHT22;40315;48.620;9.828;2023-10-09T12:38:13;20.30;99.90
54409;DHT22;40315;48.620;9.828;2023-10-09T12:40:44;20.30;99.90
54409;DHT22;40315;48.620;9.828;2023-10-09T12:43:19;20.20;99.90
54409;DHT22;40315;48.620;9.828;2023-10-09T12:45:47;20.20;99.90
54409;DHT22;40315;48.620;9.828;2023-10-09T12:48:14;20.10;99.90
54409;DHT22;40315;48.620;9.828;2023-10-09T12:50:41;20.10;99.90
54409;DHT22;40315;48.620;9.828;2023-10-09T12:53:10;20.20;99.90
54409;DHT22;40315;48.620;9.828;2023-10-09T12:55:43;20.40;99.90
54409;DHT22;40315;48.620;9.828;2023-10-09T12:58:11;20.50;99.90
54409;DHT22;40315;48.620;9.828;2023-10-09T13:00:43;20.70;99.90
54409;DHT22;40315;48.620;9.828;2023-10-09T13:03:16;20.70;99.90
54409;DHT22;40315;48.620;9.828;2023-10-09T13:05:49;20.70;99.90
54409;DHT22;40315;48.620;9.828;2023-10-09T13:08:21;20.70;99.90
54409;DHT22;40315;48.620;9.828;2023-10-09T13:10:50;20.60;99.90
54409;DHT22;40315;48.620;9.828;2023-10-09T13:13:28;20.60;99.90
54409;DHT22;40315;48.620;9.828;2023-10-09T13:16:11;20.60;99.90
54409;DHT22;40315;48.620;9.828;2023-10-09T13:18:46;20.70;99.90
54409;DHT22;40315;48.620;9.828;2023-10-09T13:21:17;20.80;99.90
54409;DHT22;40315;48.620;9.828;2023-10-09T13:23:44;20.70;99.90
54409;DHT22;40315;48.620;9.828;2023-10-09T13:26:15;20.80;99.90
54409;DHT22;40315;48.620;9.828;2023-10-09T13:28:50;21.00;99.90
54409;DHT22;40315;48.620;9.828;2023-10-09T13:31:19;21.10;99.90
54409;DHT22;40315;48.620;9.828;2023-10-09T13:33:51;21.20;99.90
54409;DHT22;40315;48.620;9.828;2023-10-09T13:36:20;21.20;99.90
54409;DHT22;40315;48.620;9.828;2023-10-09T13:38:54;21.40;99.90
54409;DHT22;40315;48.620;9.828;2023-10-09T13:41:21;21.50;99.90
54409;DHT22;40315;48.620;9.828;2023-10-09T13:43:48;21.50;99.90
54409;DHT22;40315;48.620;9.828;2023-10-09T13:46:18;21.60;99.90
54409;DHT22;40315;48.620;9.828;2023-10-09T13:48:46;21.90;99.90
54409;DHT22;40315;48.620;9.828;2023-10-09T13:51:15;22.00;99.90
54409;DHT22;40315;48.620;9.828;2023-10-09T13:53:44;22.10;99.90
54409;DHT22;40315;48.620;9.828;2023-10-09T13:56:13;22.10;99.90
54409;DHT22;40315;48.620;9.828;2023-10-09T13:58:45;21.90;99.90
54409;DHT22;40315;48.620;9.828;2023-10-09T14:01:13;22.00;99.90
54409;DHT22;40315;48.620;9.828;2023-10-09T14:03:55;21.90;99.90
54409;DHT22;40315;48.620;9.828;2023-10-09T14:06:23;22.20;99.90
54409;DHT22;40315;48.620;9.828;2023-10-09T14:09:01;22.40;99.90
54409;DHT22;40315;48.620;9.828;2023-10-09T14:11:32;22.30;99.90
54409;DHT22;40315;48.620;9.828;2023-10-09T14:14:03;22.60;99.90
54409;DHT22;40315;48.620;9.828;2023-10-09T14:16:35;22.80;99.90
54409;DHT22;40315;48.620;9.828;2023-10-09T14:19:04;23.10;99.90
54409;DHT22;40315;48.620;9.828;2023-10-09T14:21:40;23.20;99.90
54409;DHT22;40315;48.620;9.828;2023-10-09T14:24:08;23.30;99.90
54409;DHT22;40315;48.620;9.828;2023-10-09T14:26:41;23.30;99.90
54409;DHT22;40315;48.620;9.828;2023-10-09T14:29:11;23.20;99.90
54409;DHT22;40315;48.620;9.828;2023-10-09T14:31:42;22.80;99.90
54409;DHT22;40315;48.620;9.828;2023-10-09T14:34:10;22.70;99.90
54409;DHT22;40315;48.620;9.828;2023-10-09T14:36:38;22.60;99.90
54409;DHT22;40315;48.620;9.828;2023-10-09T14:39:10;22.80;99.90
54409;DHT22;40315;48.620;9.828;2023-10-09T14:41:39;23.00;99.90
54409;DHT22;40315;48.620;9.828;2023-10-09T14:44:07;22.90;99.90
54409;DHT22;40315;48.620;9.828;2023-10-09T14:46:42;22.90;99.90
54409;DHT22;40315;48.620;9.828;2023-10-09T14:49:11;22.80;99.90
54409;DHT22;40315;48.620;9.828;2023-10-09T14:51:39;22.70;99.90
54409;DHT22;40315;48.620;9.828;2023-10-09T14:54:07;22.50;99.90
54409;DHT22;40315;48.620;9.828;2023-10-09T14:56:34;22.40;99.90
54409;DHT22;40315;48.620;9.828;2023-10-09T14:59:03;22.30;99.90
54409;DHT22;40315;48.620;9.828;2023-10-09T15:01:32;22.20;99.90
54409;DHT22;40315;48.620;9.828;2023-10-09T15:04:04;22.10;99.90
54409;DHT22;40315;48.620;9.828;2023-10-09T15:06:36;22.10;99.90
54409;DHT22;40315;48.620;9.828;2023-10-09T15:09:04;22.00;99.90
54409;DHT22;40315;48.620;9.828;2023-10-09T15:11:35;21.90;99.90
54409;DHT22;40315;48.620;9.828;2023-10-09T15:14:05;21.70;99.90
54409;DHT22;40315;48.620;9.828;2023-10-09T15:16:32;21.50;99.90
54409;DHT22;40315;48.620;9.828;2023-10-09T15:18:59;21.50;99.90
54409;DHT22;40315;48.620;9.828;2023-10-09T15:21:31;21.30;99.90
54409;DHT22;40315;48.620;9.828;2023-10-09T15:24:01;21.20;99.90
54409;DHT22;40315;48.620;9.828;2023-10-09T15:26:28;21.20;99.90
54409;DHT22;40315;48.620;9.828;2023-10-09T15:29:01;21.10;99.90
54409;DHT22;40315;48.620;9.828;2023-10-09T15:31:32;21.00;99.90
54409;DHT22;40315;48.620;9.828;2023-10-09T15:34:00;21.00;99.90
54409;DHT22;40315;48.620;9.828;2023-10-09T15:36:27;21.00;99.90
54409;DHT22;40315;48.620;9.828;2023-10-09T15:38:57;20.90;99.90
54409;DHT22;40315;48.620;9.828;2023-10-09T15:41:31;20.80;99.90
54409;DHT22;40315;48.620;9.828;2023-10-09T15:44:00;20.80;99.90
54409;DHT22;40315;48.620;9.828;2023-10-09T15:46:27;20.70;99.90
54409;DHT22;40315;48.620;9.828;2023-10-09T15:48:59;20.70;99.90
54409;DHT22;40315;48.620;9.828;2023-10-09T15:51:27;20.60;99.90
54409;DHT22;40315;48.620;9.828;2023-10-09T15:53:56;20.40;99.90
54409;DHT22;40315;48.620;9.828;2023-10-09T15:56:24;20.40;99.90
54409;DHT22;40315;48.620;9.828;2023-10-09T15:58:54;20.30;99.90
54409;DHT22;40315;48.620;9.828;2023-10-09T16:01:22;20.30;99.90
54409;DHT22;40315;48.620;9.828;2023-10-09T16:03:49;20.20;99.90
54409;DHT22;40315;48.620;9.828;2023-10-09T16:06:17;20.20;99.90
54409;DHT22;40315;48.620;9.828;2023-10-09T16:08:45;20.10;99.90
54409;DHT22;40315;48.620;9.828;2023-10-09T16:11:16;20.00;99.90
54409;DHT22;40315;48.620;9.828;2023-10-09T16:13:44;19.90;99.90
54409;DHT22;40315;48.620;9.828;2023-10-09T16:16:13;19.80;99.90
54409;DHT22;40315;48.620;9.828;2023-10-09T16:18:40;19.70;99.90
54409;DHT22;40315;48.620;9.828;2023-10-09T16:21:07;19.60;99.90
54409;DHT22;40315;48.620;9.828;2023-10-09T16:23:38;19.50;99.90
54409;DHT22;40315;48.620;9.828;2023-10-09T16:26:05;19.40;99.90
54409;DHT22;40315;48.620;9.828;2023-10-09T16:28:33;19.40;99.90
54409;DHT22;40315;48.620;9.828;2023-10-09T16:31:00;19.20;99.90
54409;DHT22;40315;48.620;9.828;2023-10-09T16:33:29;19.20;99.90
54409;DHT22;40315;48.620;9.828;2023-10-09T16:35:58;19.00;99.90
54409;DHT22;40315;48.620;9.828;2023-10-09T16:38:26;18.90;99.90
54409;DHT22;40315;48.620;9.828;2023-10-09T16:40:54;18.70;99.90
54409;DHT22;40315;48.620;9.828;2023-10-09T16:43:22;18.70;99.90
54409;DHT22;40315;48.620;9.828;2023-10-09T16:45:53;18.60;99.90
54409;DHT22;40315;48.620;9.828;2023-10-09T16:48:26;18.50;99.90
54409;DHT22;40315;48.620;9.828;2023-10-09T16:50:58;18.40;99.90
54409;DHT22;40315;48.620;9.828;2023-10-09T16:53:26;18.30;99.90
54409;DHT22;40315;48.620;9.828;2023-10-09T16:55:53;18.30;99.90
54409;DHT22;40315;48.620;9.828;2023-10-09T16:58:23;18.10;99.90
54409;DHT22;40315;48.620;9.828;2023-10-09T17:00:50;18.00;99.90
54409;DHT22;40315;48.620;9.828;2023-10-09T17:03:21;18.00;99.90
54409;DHT22;40315;48.620;9.828;2023-10-09T17:05:53;17.80;99.90
54409;DHT22;40315;48.620;9.828;2023-10-09T17:08:30;17.70;99.90
54409;DHT22;40315;48.620;9.828;2023-10-09T17:11:00;17.60;99.90
54409;DHT22;40315;48.620;9.828;2023-10-09T17:13:29;17.50;99.90
54409;DHT22;40315;48.620;9.828;2023-10-09T17:15:56;17.30;99.90
54409;DHT22;40315;48.620;9.828;2023-10-09T17:18:24;17.30;99.90
54409;DHT22;40315;48.620;9.828;2023-10-09T17:20:53;17.30;99.90
54409;DHT22;40315;48.620;9.828;2023-10-09T17:23:20;17.20;99.90
54409;DHT22;40315;48.620;9.828;2023-10-09T17:25:48;17.10;99.90
54409;DHT22;40315;48.620;9.828;2023-10-09T17:28:23;16.90;99.90
54409;DHT22;40315;48.620;9.828;2023-10-09T17:30:59;16.80;99.90
54409;DHT22;40315;48.620;9.828;2023-10-09T17:33:27;16.70;99.90